sensor_id;sensor_type;location;lat;lon;timestamp;P1;durP1;ratioP1;P2;durP2;ratioP2
16957;SDS011;8595;52.542;11.974;2023-08-17T00:00:04;6.55;;;5.57;;
16957;SDS011;8595;52.542;11.974;2023-08-17T00:02:35;7.00;;;5.15;;
16957;SDS011;8595;52.542;11.974;2023-08-17T00:05:01;11.60;;;5.90;;
16957;SDS011;8595;52.542;11.974;2023-08-17T00:07:31;6.70;;;5.22;;
16957;SDS011;8595;52.542;11.974;2023-08-17T00:09:58;10.43;;;5.45;;
16957;SDS011;8595;52.542;11.974;2023-08-17T00:12:27;8.82;;;5.43;;
16957;SDS011;8595;52.542;11.974;2023-08-17T00:14:53;8.73;;;5.13;;
16957;SDS011;8595;52.542;11.974;2023-08-17T00:17:20;10.07;;;5.13;;
16957;SDS011;8595;52.542;11.974;2023-08-17T00:19:48;7.70;;;5.25;;
16957;SDS011;8595;52.542;11.974;2023-08-17T00:22:15;8.85;;;5.00;;
16957;SDS011;8595;52.542;11.974;2023-08-17T00:24:42;5.70;;;5.07;;
16957;SDS011;8595;52.542;11.974;2023-08-17T00:27:10;7.57;;;5.00;;
16957;SDS011;8595;52.542;11.974;2023-08-17T00:29:38;7.00;;;5.28;;
16957;SDS011;8595;52.542;11.974;2023-08-17T00:32:06;6.47;;;5.05;;
16957;SDS011;8595;52.542;11.974;2023-08-17T00:34:32;8.13;;;5.32;;
16957;SDS011;8595;52.542;11.974;2023-08-17T00:36:59;7.68;;;5.07;;
16957;SDS011;8595;52.542;11.974;2023-08-17T00:39:26;14.02;;;5.20;;
16957;SDS011;8595;52.542;11.974;2023-08-17T00:41:54;7.78;;;5.18;;
16957;SDS011;8595;52.542;11.974;2023-08-17T00:44:21;5.75;;;5.25;;
16957;SDS011;8595;52.542;11.974;2023-08-17T00:46:49;7.57;;;4.97;;
16957;SDS011;8595;52.542;11.974;2023-08-17T00:49:16;5.80;;;5.20;;
16957;SDS011;8595;52.542;11.974;2023-08-17T00:51:42;10.85;;;5.03;;
16957;SDS011;8595;52.542;11.974;2023-08-17T00:54:09;6.90;;;4.78;;
16957;SDS011;8595;52.542;11.974;2023-08-17T00:56:37;10.35;;;5.40;;
16957;SDS011;8595;52.542;11.974;2023-08-17T00:59:03;6.50;;;5.70;;
16957;SDS011;8595;52.542;11.974;2023-08-17T01:01:30;7.07;;;5.85;;
16957;SDS011;8595;52.542;11.974;2023-08-17T01:03:59;6.53;;;5.20;;
16957;SDS011;8595;52.542;11.974;2023-08-17T01:06:25;6.95;;;5.40;;
16957;SDS011;8595;52.542;11.974;2023-08-17T01:08:53;9.07;;;5.38;;
16957;SDS011;8595;52.542;11.974;2023-08-17T01:11:22;8.98;;;5.22;;
16957;SDS011;8595;52.542;11.974;2023-08-17T01:13:56;6.97;;;5.18;;
16957;SDS011;8595;52.542;11.974;2023-08-17T01:16:29;7.45;;;5.28;;
16957;SDS011;8595;52.542;11.974;2023-08-17T01:19:01;6.85;;;5.32;;
16957;SDS011;8595;52.542;11.974;2023-08-17T01:21:35;9.15;;;5.50;;
16957;SDS011;8595;52.542;11.974;2023-08-17T01:24:09;7.70;;;5.25;;
16957;SDS011;8595;52.542;11.974;2023-08-17T01:26:37;7.22;;;5.45;;
16957;SDS011;8595;52.542;11.974;2023-08-17T01:29:04;12.00;;;4.95;;
16957;SDS011;8595;52.542;11.974;2023-08-17T01:31:35;8.48;;;5.50;;
16957;SDS011;8595;52.542;11.974;2023-08-17T01:34:14;9.43;;;4.93;;
16957;SDS011;8595;52.542;11.974;2023-08-17T01:36:46;10.38;;;5.90;;
16957;SDS011;8595;52.542;11.974;2023-08-17T01:39:18;9.10;;;5.28;;
16957;SDS011;8595;52.542;11.974;2023-08-17T01:41:48;5.35;;;4.85;;
16957;SDS011;8595;52.542;11.974;2023-08-17T01:44:16;9.77;;;5.43;;
16957;SDS011;8595;52.542;11.974;2023-08-17T01:46:43;7.18;;;5.15;;
16957;SDS011;8595;52.542;11.974;2023-08-17T01:49:10;7.45;;;5.00;;
16957;SDS011;8595;52.542;11.974;2023-08-17T01:51:36;10.68;;;5.28;;
16957;SDS011;8595;52.542;11.974;2023-08-17T01:54:03;6.22;;;5.30;;
16957;SDS011;8595;52.542;11.974;2023-08-17T01:56:32;6.22;;;4.97;;
16957;SDS011;8595;52.542;11.974;2023-08-17T01:58:58;8.40;;;5.68;;
16957;SDS011;8595;52.542;11.974;2023-08-17T02:01:25;6.32;;;4.85;;
16957;SDS011;8595;52.542;11.974;2023-08-17T02:03:53;8.90;;;5.28;;
16957;SDS011;8595;52.542;11.974;2023-08-17T02:06:19;6.57;;;4.50;;
16957;SDS011;8595;52.542;11.974;2023-08-17T02:08:46;7.57;;;5.25;;
16957;SDS011;8595;52.542;11.974;2023-08-17T02:11:13;12.10;;;5.72;;
16957;SDS011;8595;52.542;11.974;2023-08-17T02:13:41;7.07;;;4.40;;
16957;SDS011;8595;52.542;11.974;2023-08-17T02:16:08;7.57;;;4.43;;
16957;SDS011;8595;52.542;11.974;2023-08-17T02:18:34;9.10;;;5.30;;
16957;SDS011;8595;52.542;11.974;2023-08-17T02:21:01;7.40;;;5.28;;
16957;SDS011;8595;52.542;11.974;2023-08-17T02:23:28;5.30;;;4.32;;
16957;SDS011;8595;52.542;11.974;2023-08-17T02:25:55;9.52;;;5.50;;
16957;SDS011;8595;52.542;11.974;2023-08-17T02:28:21;9.98;;;4.80;;
16957;SDS011;8595;52.542;11.974;2023-08-17T02:30:54;7.28;;;4.60;;
16957;SDS011;8595;52.542;11.974;2023-08-17T02:33:21;8.63;;;4.90;;
16957;SDS011;8595;52.542;11.974;2023-08-17T02:35:48;10.45;;;5.47;;
16957;SDS011;8595;52.542;11.974;2023-08-17T02:38:16;9.38;;;5.00;;
16957;SDS011;8595;52.542;11.974;2023-08-17T02:40:42;6.50;;;4.75;;
16957;SDS011;8595;52.542;11.974;2023-08-17T02:43:10;5.82;;;5.13;;
16957;SDS011;8595;52.542;11.974;2023-08-17T02:45:36;7.70;;;5.28;;
16957;SDS011;8595;52.542;11.974;2023-08-17T02:48:05;8.93;;;5.05;;
16957;SDS011;8595;52.542;11.974;2023-08-17T02:50:32;8.02;;;4.82;;
16957;SDS011;8595;52.542;11.974;2023-08-17T02:52:58;9.40;;;5.18;;
16957;SDS011;8595;52.542;11.974;2023-08-17T02:55:27;5.82;;;4.78;;
16957;SDS011;8595;52.542;11.974;2023-08-17T02:57:53;10.90;;;5.60;;
16957;SDS011;8595;52.542;11.974;2023-08-17T03:00:20;8.90;;;5.55;;
16957;SDS011;8595;52.542;11.974;2023-08-17T03:02:47;8.18;;;5.30;;
16957;SDS011;8595;52.542;11.974;2023-08-17T03:05:15;11.52;;;5.18;;
16957;SDS011;8595;52.542;11.974;2023-08-17T03:07:42;7.55;;;5.18;;
16957;SDS011;8595;52.542;11.974;2023-08-17T03:10:09;9.18;;;5.05;;
16957;SDS011;8595;52.542;11.974;2023-08-17T03:12:35;6.03;;;5.25;;
16957;SDS011;8595;52.542;11.974;2023-08-17T03:15:04;8.00;;;5.22;;
16957;SDS011;8595;52.542;11.974;2023-08-17T03:17:31;9.68;;;5.25;;
16957;SDS011;8595;52.542;11.974;2023-08-17T03:19:58;7.93;;;5.80;;
16957;SDS011;8595;52.542;11.974;2023-08-17T03:22:26;11.48;;;5.28;;
16957;SDS011;8595;52.542;11.974;2023-08-17T03:24:54;8.82;;;5.18;;
16957;SDS011;8595;52.542;11.974;2023-08-17T03:27:21;6.95;;;5.32;;
16957;SDS011;8595;52.542;11.974;2023-08-17T03:29:49;9.70;;;5.47;;
16957;SDS011;8595;52.542;11.974;2023-08-17T03:32:16;8.30;;;5.82;;
16957;SDS011;8595;52.542;11.974;2023-08-17T03:34:43;7.28;;;5.60;;
16957;SDS011;8595;52.542;11.974;2023-08-17T03:37:10;8.63;;;5.28;;
16957;SDS011;8595;52.542;11.974;2023-08-17T03:39:38;11.15;;;5.38;;
16957;SDS011;8595;52.542;11.974;2023-08-17T03:42:04;11.13;;;5.97;;
16957;SDS011;8595;52.542;11.974;2023-08-17T03:44:31;8.25;;;6.05;;
16957;SDS011;8595;52.542;11.974;2023-08-17T03:46:58;12.35;;;6.28;;
16957;SDS011;8595;52.542;11.974;2023-08-17T03:49:25;9.68;;;6.03;;
16957;SDS011;8595;52.542;11.974;2023-08-17T03:51:52;7.38;;;5.40;;
16957;SDS011;8595;52.542;11.974;2023-08-17T03:54:18;7.97;;;6.82;;
16957;SDS011;8595;52.542;11.974;2023-08-17T03:56:46;11.00;;;5.18;;
16957;SDS011;8595;52.542;11.974;2023-08-17T03:59:13;11.77;;;6.28;;
16957;SDS011;8595;52.542;11.974;2023-08-17T04:01:40;9.63;;;5.95;;
16957;SDS011;8595;52.542;11.974;2023-08-17T04:04:07;6.63;;;5.50;;
16957;SDS011;8595;52.542;11.974;2023-08-17T04:06:34;9.55;;;5.93;;
16957;SDS011;8595;52.542;11.974;2023-08-17T04:09:04;9.80;;;5.60;;
16957;SDS011;8595;52.542;11.974;2023-08-17T04:11:31;14.00;;;7.72;;
16957;SDS011;8595;52.542;11.974;2023-08-17T04:14:01;11.68;;;7.57;;
16957;SDS011;8595;52.542;11.974;2023-08-17T04:16:28;11.50;;;6.78;;
16957;SDS011;8595;52.542;11.974;2023-08-17T04:18:55;12.38;;;7.25;;
16957;SDS011;8595;52.542;11.974;2023-08-17T04:21:22;9.75;;;6.93;;
16957;SDS011;8595;52.542;11.974;2023-08-17T04:23:49;13.40;;;7.13;;
16957;SDS011;8595;52.542;11.974;2023-08-17T04:26:16;10.00;;;7.60;;
16957;SDS011;8595;52.542;11.974;2023-08-17T04:28:42;17.35;;;8.68;;
16957;SDS011;8595;52.542;11.974;2023-08-17T04:31:11;13.25;;;8.20;;
16957;SDS011;8595;52.542;11.974;2023-08-17T04:33:37;15.50;;;9.82;;
16957;SDS011;8595;52.542;11.974;2023-08-17T04:36:05;13.60;;;8.77;;
16957;SDS011;8595;52.542;11.974;2023-08-17T04:38:32;13.40;;;9.20;;
16957;SDS011;8595;52.542;11.974;2023-08-17T04:40:59;11.05;;;8.23;;
16957;SDS011;8595;52.542;11.974;2023-08-17T04:43:25;12.38;;;8.48;;
16957;SDS011;8595;52.542;11.974;2023-08-17T04:45:52;10.68;;;7.60;;
16957;SDS011;8595;52.542;11.974;2023-08-17T04:48:20;7.38;;;6.45;;
16957;SDS011;8595;52.542;11.974;2023-08-17T04:50:48;8.57;;;7.22;;
16957;SDS011;8595;52.542;11.974;2023-08-17T04:53:14;10.00;;;7.45;;
16957;SDS011;8595;52.542;11.974;2023-08-17T04:55:41;11.25;;;7.18;;
16957;SDS011;8595;52.542;11.974;2023-08-17T04:58:08;11.43;;;8.45;;
16957;SDS011;8595;52.542;11.974;2023-08-17T05:00:35;14.25;;;8.50;;
16957;SDS011;8595;52.542;11.974;2023-08-17T05:03:02;12.77;;;9.05;;
16957;SDS011;8595;52.542;11.974;2023-08-17T05:05:31;11.52;;;8.60;;
16957;SDS011;8595;52.542;11.974;2023-08-17T05:08:00;12.85;;;7.78;;
16957;SDS011;8595;52.542;11.974;2023-08-17T05:10:27;12.27;;;9.52;;
16957;SDS011;8595;52.542;11.974;2023-08-17T05:12:54;23.50;;;9.75;;
16957;SDS011;8595;52.542;11.974;2023-08-17T05:15:21;12.50;;;9.35;;
16957;SDS011;8595;52.542;11.974;2023-08-17T05:17:47;16.55;;;9.73;;
16957;SDS011;8595;52.542;11.974;2023-08-17T05:20:14;14.05;;;9.45;;
16957;SDS011;8595;52.542;11.974;2023-08-17T05:22:42;17.42;;;11.15;;
16957;SDS011;8595;52.542;11.974;2023-08-17T05:25:09;17.83;;;10.77;;
16957;SDS011;8595;52.542;11.974;2023-08-17T05:27:36;11.60;;;9.20;;
16957;SDS011;8595;52.542;11.974;2023-08-17T05:30:03;16.10;;;9.32;;
16957;SDS011;8595;52.542;11.974;2023-08-17T05:32:31;14.80;;;9.77;;
16957;SDS011;8595;52.542;11.974;2023-08-17T05:34:57;11.48;;;8.80;;
16957;SDS011;8595;52.542;11.974;2023-08-17T05:37:24;10.73;;;8.55;;
16957;SDS011;8595;52.542;11.974;2023-08-17T05:39:52;11.93;;;8.50;;
16957;SDS011;8595;52.542;11.974;2023-08-17T05:42:19;9.25;;;7.78;;
16957;SDS011;8595;52.542;11.974;2023-08-17T05:44:46;11.13;;;7.32;;
16957;SDS011;8595;52.542;11.974;2023-08-17T05:47:13;10.48;;;8.60;;
16957;SDS011;8595;52.542;11.974;2023-08-17T05:49:42;10.85;;;7.97;;
16957;SDS011;8595;52.542;11.974;2023-08-17T05:52:09;10.65;;;7.88;;
16957;SDS011;8595;52.542;11.974;2023-08-17T05:54:36;16.80;;;8.35;;
16957;SDS011;8595;52.542;11.974;2023-08-17T05:57:04;11.65;;;8.32;;
16957;SDS011;8595;52.542;11.974;2023-08-17T05:59:31;11.90;;;8.25;;
16957;SDS011;8595;52.542;11.974;2023-08-17T06:01:57;11.15;;;7.45;;
16957;SDS011;8595;52.542;11.974;2023-08-17T06:04:24;8.20;;;7.40;;
16957;SDS011;8595;52.542;11.974;2023-08-17T06:06:51;7.75;;;6.75;;
16957;SDS011;8595;52.542;11.974;2023-08-17T06:09:18;7.07;;;5.72;;
16957;SDS011;8595;52.542;11.974;2023-08-17T06:11:45;7.50;;;6.68;;
16957;SDS011;8595;52.542;11.974;2023-08-17T06:14:13;9.90;;;7.00;;
16957;SDS011;8595;52.542;11.974;2023-08-17T06:16:40;11.07;;;7.70;;
16957;SDS011;8595;52.542;11.974;2023-08-17T06:19:07;6.90;;;6.15;;
16957;SDS011;8595;52.542;11.974;2023-08-17T06:21:33;11.50;;;6.72;;
16957;SDS011;8595;52.542;11.974;2023-08-17T06:24:00;10.45;;;7.50;;
16957;SDS011;8595;52.542;11.974;2023-08-17T06:26:29;9.68;;;6.82;;
16957;SDS011;8595;52.542;11.974;2023-08-17T06:28:56;7.97;;;6.30;;
16957;SDS011;8595;52.542;11.974;2023-08-17T06:31:24;6.75;;;6.07;;
16957;SDS011;8595;52.542;11.974;2023-08-17T06:33:52;7.70;;;6.20;;
16957;SDS011;8595;52.542;11.974;2023-08-17T06:36:19;7.15;;;6.10;;
16957;SDS011;8595;52.542;11.974;2023-08-17T06:38:46;8.15;;;5.97;;
16957;SDS011;8595;52.542;11.974;2023-08-17T06:41:13;7.30;;;6.35;;
16957;SDS011;8595;52.542;11.974;2023-08-17T06:43:40;8.30;;;6.10;;
16957;SDS011;8595;52.542;11.974;2023-08-17T06:46:06;12.80;;;6.00;;
16957;SDS011;8595;52.542;11.974;2023-08-17T06:48:35;7.47;;;5.63;;
16957;SDS011;8595;52.542;11.974;2023-08-17T06:51:01;7.00;;;6.10;;
16957;SDS011;8595;52.542;11.974;2023-08-17T06:53:29;6.75;;;5.20;;
16957;SDS011;8595;52.542;11.974;2023-08-17T06:55:56;7.50;;;5.28;;
16957;SDS011;8595;52.542;11.974;2023-08-17T06:58:23;8.10;;;5.72;;
16957;SDS011;8595;52.542;11.974;2023-08-17T07:00:49;7.18;;;5.25;;
16957;SDS011;8595;52.542;11.974;2023-08-17T07:03:16;8.95;;;5.13;;
16957;SDS011;8595;52.542;11.974;2023-08-17T07:05:45;5.63;;;4.65;;
16957;SDS011;8595;52.542;11.974;2023-08-17T07:08:11;5.43;;;4.75;;
16957;SDS011;8595;52.542;11.974;2023-08-17T07:10:38;6.80;;;5.13;;
16957;SDS011;8595;52.542;11.974;2023-08-17T07:13:05;7.22;;;5.32;;
16957;SDS011;8595;52.542;11.974;2023-08-17T07:15:32;7.95;;;4.65;;
16957;SDS011;8595;52.542;11.974;2023-08-17T07:17:59;7.90;;;4.97;;
16957;SDS011;8595;52.542;11.974;2023-08-17T07:20:25;15.00;;;4.93;;
16957;SDS011;8595;52.542;11.974;2023-08-17T07:22:53;8.35;;;4.57;;
16957;SDS011;8595;52.542;11.974;2023-08-17T07:25:20;5.93;;;4.78;;
16957;SDS011;8595;52.542;11.974;2023-08-17T07:27:47;5.93;;;4.38;;
16957;SDS011;8595;52.542;11.974;2023-08-17T07:30:14;6.15;;;4.25;;
16957;SDS011;8595;52.542;11.974;2023-08-17T07:32:40;6.07;;;4.38;;
16957;SDS011;8595;52.542;11.974;2023-08-17T07:35:07;5.03;;;4.18;;
16957;SDS011;8595;52.542;11.974;2023-08-17T07:37:34;5.75;;;4.25;;
16957;SDS011;8595;52.542;11.974;2023-08-17T07:40:03;4.80;;;4.15;;
16957;SDS011;8595;52.542;11.974;2023-08-17T07:42:30;4.50;;;4.10;;
16957;SDS011;8595;52.542;11.974;2023-08-17T07:44:57;4.63;;;3.72;;
16957;SDS011;8595;52.542;11.974;2023-08-17T07:47:24;4.57;;;3.88;;
16957;SDS011;8595;52.542;11.974;2023-08-17T07:49:51;6.82;;;4.45;;
16957;SDS011;8595;52.542;11.974;2023-08-17T07:52:18;5.70;;;3.72;;
16957;SDS011;8595;52.542;11.974;2023-08-17T07:54:45;4.93;;;4.10;;
16957;SDS011;8595;52.542;11.974;2023-08-17T07:57:13;5.95;;;4.40;;
16957;SDS011;8595;52.542;11.974;2023-08-17T07:59:40;6.00;;;4.18;;
16957;SDS011;8595;52.542;11.974;2023-08-17T08:02:07;6.32;;;4.53;;
16957;SDS011;8595;52.542;11.974;2023-08-17T08:04:33;8.73;;;3.85;;
16957;SDS011;8595;52.542;11.974;2023-08-17T08:07:00;5.45;;;4.00;;
16957;SDS011;8595;52.542;11.974;2023-08-17T08:09:27;5.63;;;4.38;;
16957;SDS011;8595;52.542;11.974;2023-08-17T08:11:54;4.93;;;4.05;;
16957;SDS011;8595;52.542;11.974;2023-08-17T08:14:22;4.25;;;3.55;;
16957;SDS011;8595;52.542;11.974;2023-08-17T08:16:49;5.13;;;4.63;;
16957;SDS011;8595;52.542;11.974;2023-08-17T08:19:15;8.98;;;4.07;;
16957;SDS011;8595;52.542;11.974;2023-08-17T08:21:42;6.25;;;4.30;;
16957;SDS011;8595;52.542;11.974;2023-08-17T08:24:09;5.55;;;3.90;;
16957;SDS011;8595;52.542;11.974;2023-08-17T08:26:36;5.00;;;4.50;;
16957;SDS011;8595;52.542;11.974;2023-08-17T08:29:03;4.10;;;3.70;;
16957;SDS011;8595;52.542;11.974;2023-08-17T08:31:31;8.88;;;4.18;;
16957;SDS011;8595;52.542;11.974;2023-08-17T08:33:57;5.68;;;3.50;;
16957;SDS011;8595;52.542;11.974;2023-08-17T08:36:24;3.58;;;3.22;;
16957;SDS011;8595;52.542;11.974;2023-08-17T08:38:51;5.03;;;4.35;;
16957;SDS011;8595;52.542;11.974;2023-08-17T08:41:18;4.88;;;3.70;;
16957;SDS011;8595;52.542;11.974;2023-08-17T08:43:46;7.10;;;3.53;;
16957;SDS011;8595;52.542;11.974;2023-08-17T08:46:13;4.57;;;4.00;;
16957;SDS011;8595;52.542;11.974;2023-08-17T08:48:44;4.30;;;3.80;;
16957;SDS011;8595;52.542;11.974;2023-08-17T08:51:12;5.07;;;4.53;;
16957;SDS011;8595;52.542;11.974;2023-08-17T08:53:47;5.80;;;4.90;;
16957;SDS011;8595;52.542;11.974;2023-08-17T08:56:16;4.93;;;4.32;;
16957;SDS011;8595;52.542;11.974;2023-08-17T08:58:47;6.47;;;3.45;;
16957;SDS011;8595;52.542;11.974;2023-08-17T09:01:14;9.35;;;4.28;;
16957;SDS011;8595;52.542;11.974;2023-08-17T09:03:44;5.75;;;3.95;;
16957;SDS011;8595;52.542;11.974;2023-08-17T09:06:13;6.05;;;3.40;;
16957;SDS011;8595;52.542;11.974;2023-08-17T09:08:40;6.20;;;3.70;;
16957;SDS011;8595;52.542;11.974;2023-08-17T09:11:10;4.45;;;3.40;;
16957;SDS011;8595;52.542;11.974;2023-08-17T09:13:36;5.10;;;3.20;;
16957;SDS011;8595;52.542;11.974;2023-08-17T09:16:03;5.50;;;3.65;;
16957;SDS011;8595;52.542;11.974;2023-08-17T09:18:30;5.25;;;3.20;;
16957;SDS011;8595;52.542;11.974;2023-08-17T09:20:59;4.95;;;3.63;;
16957;SDS011;8595;52.542;11.974;2023-08-17T09:23:25;6.38;;;3.53;;
16957;SDS011;8595;52.542;11.974;2023-08-17T09:25:52;5.90;;;3.42;;
16957;SDS011;8595;52.542;11.974;2023-08-17T09:28:23;6.53;;;3.22;;
16957;SDS011;8595;52.542;11.974;2023-08-17T09:30:50;6.03;;;3.40;;
16957;SDS011;8595;52.542;11.974;2023-08-17T09:33:19;6.50;;;3.40;;
16957;SDS011;8595;52.542;11.974;2023-08-17T09:35:46;6.25;;;2.60;;
16957;SDS011;8595;52.542;11.974;2023-08-17T09:38:15;4.82;;;3.20;;
16957;SDS011;8595;52.542;11.974;2023-08-17T09:40:42;6.85;;;3.65;;
16957;SDS011;8595;52.542;11.974;2023-08-17T09:43:09;4.32;;;3.40;;
16957;SDS011;8595;52.542;11.974;2023-08-17T09:45:36;6.15;;;3.05;;
16957;SDS011;8595;52.542;11.974;2023-08-17T09:48:04;3.95;;;2.40;;
16957;SDS011;8595;52.542;11.974;2023-08-17T09:50:31;6.38;;;2.90;;
16957;SDS011;8595;52.542;11.974;2023-08-17T09:52:59;5.68;;;3.58;;
16957;SDS011;8595;52.542;11.974;2023-08-17T09:55:29;3.22;;;2.92;;
16957;SDS011;8595;52.542;11.974;2023-08-17T09:57:57;5.53;;;3.80;;
16957;SDS011;8595;52.542;11.974;2023-08-17T10:00:23;10.48;;;3.58;;
16957;SDS011;8595;52.542;11.974;2023-08-17T10:02:52;3.97;;;3.05;;
16957;SDS011;8595;52.542;11.974;2023-08-17T10:05:19;3.60;;;3.08;;
16957;SDS011;8595;52.542;11.974;2023-08-17T10:07:47;4.22;;;3.40;;
16957;SDS011;8595;52.542;11.974;2023-08-17T10:10:19;3.65;;;3.03;;
16957;SDS011;8595;52.542;11.974;2023-08-17T10:12:53;4.57;;;3.00;;
16957;SDS011;8595;52.542;11.974;2023-08-17T10:15:29;4.47;;;3.80;;
16957;SDS011;8595;52.542;11.974;2023-08-17T10:17:58;7.15;;;4.70;;
16957;SDS011;8595;52.542;11.974;2023-08-17T10:20:34;4.78;;;4.00;;
16957;SDS011;8595;52.542;11.974;2023-08-17T10:23:06;6.25;;;4.57;;
16957;SDS011;8595;52.542;11.974;2023-08-17T10:25:38;6.00;;;4.72;;
16957;SDS011;8595;52.542;11.974;2023-08-17T10:28:07;7.43;;;3.88;;
16957;SDS011;8595;52.542;11.974;2023-08-17T10:30:35;7.10;;;4.20;;
16957;SDS011;8595;52.542;11.974;2023-08-17T10:33:02;5.68;;;4.43;;
16957;SDS011;8595;52.542;11.974;2023-08-17T10:35:31;5.43;;;4.35;;
16957;SDS011;8595;52.542;11.974;2023-08-17T10:37:59;6.55;;;4.88;;
16957;SDS011;8595;52.542;11.974;2023-08-17T10:40:26;5.07;;;4.40;;
16957;SDS011;8595;52.542;11.974;2023-08-17T10:42:54;5.30;;;3.92;;
16957;SDS011;8595;52.542;11.974;2023-08-17T10:45:29;6.30;;;5.13;;
16957;SDS011;8595;52.542;11.974;2023-08-17T10:48:00;8.32;;;4.95;;
16957;SDS011;8595;52.542;11.974;2023-08-17T10:50:43;5.72;;;4.35;;
16957;SDS011;8595;52.542;11.974;2023-08-17T10:53:25;7.22;;;4.90;;
16957;SDS011;8595;52.542;11.974;2023-08-17T10:55:54;8.13;;;5.57;;
16957;SDS011;8595;52.542;11.974;2023-08-17T10:58:23;5.28;;;4.78;;
16957;SDS011;8595;52.542;11.974;2023-08-17T11:00:55;7.43;;;5.10;;
16957;SDS011;8595;52.542;11.974;2023-08-17T11:03:22;7.30;;;5.07;;
16957;SDS011;8595;52.542;11.974;2023-08-17T11:05:50;5.80;;;5.20;;
16957;SDS011;8595;52.542;11.974;2023-08-17T11:08:22;7.25;;;5.05;;
16957;SDS011;8595;52.542;11.974;2023-08-17T11:10:57;7.95;;;5.28;;
16957;SDS011;8595;52.542;11.974;2023-08-17T11:13:26;5.47;;;4.40;;
16957;SDS011;8595;52.542;11.974;2023-08-17T11:15:55;8.20;;;3.75;;
16957;SDS011;8595;52.542;11.974;2023-08-17T11:18:23;6.38;;;5.10;;
16957;SDS011;8595;52.542;11.974;2023-08-17T11:20:50;7.63;;;5.43;;
16957;SDS011;8595;52.542;11.974;2023-08-17T11:23:19;6.13;;;5.53;;
16957;SDS011;8595;52.542;11.974;2023-08-17T11:25:46;5.75;;;4.47;;
16957;SDS011;8595;52.542;11.974;2023-08-17T11:28:13;7.88;;;4.38;;
16957;SDS011;8595;52.542;11.974;2023-08-17T11:30:41;4.90;;;3.92;;
16957;SDS011;8595;52.542;11.974;2023-08-17T11:33:09;4.13;;;3.72;;
16957;SDS011;8595;52.542;11.974;2023-08-17T11:35:36;5.90;;;4.05;;
16957;SDS011;8595;52.542;11.974;2023-08-17T11:38:04;6.30;;;4.63;;
16957;SDS011;8595;52.542;11.974;2023-08-17T11:40:31;6.07;;;3.85;;
16957;SDS011;8595;52.542;11.974;2023-08-17T11:42:58;5.65;;;4.15;;
16957;SDS011;8595;52.542;11.974;2023-08-17T11:45:25;6.13;;;4.10;;
16957;SDS011;8595;52.542;11.974;2023-08-17T11:47:52;5.65;;;4.18;;
16957;SDS011;8595;52.542;11.974;2023-08-17T11:50:20;7.07;;;4.30;;
16957;SDS011;8595;52.542;11.974;2023-08-17T11:52:47;5.40;;;4.00;;
16957;SDS011;8595;52.542;11.974;2023-08-17T11:55:15;9.45;;;4.55;;
16957;SDS011;8595;52.542;11.974;2023-08-17T11:57:44;5.68;;;4.05;;
16957;SDS011;8595;52.542;11.974;2023-08-17T12:00:16;4.82;;;4.35;;
16957;SDS011;8595;52.542;11.974;2023-08-17T12:02:43;4.07;;;3.70;;
16957;SDS011;8595;52.542;11.974;2023-08-17T12:05:13;6.65;;;4.63;;
16957;SDS011;8595;52.542;11.974;2023-08-17T12:07:41;4.60;;;4.13;;
16957;SDS011;8595;52.542;11.974;2023-08-17T12:10:08;9.93;;;4.57;;
16957;SDS011;8595;52.542;11.974;2023-08-17T12:12:36;5.47;;;4.10;;
16957;SDS011;8595;52.542;11.974;2023-08-17T12:15:04;6.15;;;4.97;;
16957;SDS011;8595;52.542;11.974;2023-08-17T12:17:31;4.50;;;3.58;;
16957;SDS011;8595;52.542;11.974;2023-08-17T12:19:58;5.78;;;3.88;;
16957;SDS011;8595;52.542;11.974;2023-08-17T12:22:25;5.20;;;4.00;;
16957;SDS011;8595;52.542;11.974;2023-08-17T12:24:54;6.63;;;4.03;;
16957;SDS011;8595;52.542;11.974;2023-08-17T12:27:21;4.18;;;3.78;;
16957;SDS011;8595;52.542;11.974;2023-08-17T12:29:49;4.70;;;4.28;;
16957;SDS011;8595;52.542;11.974;2023-08-17T12:32:17;5.68;;;4.65;;
16957;SDS011;8595;52.542;11.974;2023-08-17T12:34:45;5.82;;;4.45;;
16957;SDS011;8595;52.542;11.974;2023-08-17T12:37:17;4.80;;;4.15;;
16957;SDS011;8595;52.542;11.974;2023-08-17T12:39:44;6.07;;;3.90;;
16957;SDS011;8595;52.542;11.974;2023-08-17T12:42:13;8.68;;;4.05;;
16957;SDS011;8595;52.542;11.974;2023-08-17T12:44:40;8.20;;;3.95;;
16957;SDS011;8595;52.542;11.974;2023-08-17T12:47:07;4.45;;;3.92;;
16957;SDS011;8595;52.542;11.974;2023-08-17T12:49:35;5.53;;;4.00;;
16957;SDS011;8595;52.542;11.974;2023-08-17T12:52:02;6.75;;;4.07;;
16957;SDS011;8595;52.542;11.974;2023-08-17T12:54:29;4.88;;;4.10;;
16957;SDS011;8595;52.542;11.974;2023-08-17T12:56:56;5.97;;;4.15;;
16957;SDS011;8595;52.542;11.974;2023-08-17T12:59:24;6.63;;;4.57;;
16957;SDS011;8595;52.542;11.974;2023-08-17T13:01:51;6.72;;;4.32;;
16957;SDS011;8595;52.542;11.974;2023-08-17T13:04:18;5.75;;;4.05;;
16957;SDS011;8595;52.542;11.974;2023-08-17T13:06:44;6.57;;;4.28;;
16957;SDS011;8595;52.542;11.974;2023-08-17T13:09:12;7.63;;;4.50;;
16957;SDS011;8595;52.542;11.974;2023-08-17T13:11:41;5.43;;;4.85;;
16957;SDS011;8595;52.542;11.974;2023-08-17T13:14:07;6.95;;;5.32;;
16957;SDS011;8595;52.542;11.974;2023-08-17T13:16:36;6.75;;;4.60;;
16957;SDS011;8595;52.542;11.974;2023-08-17T13:19:03;11.18;;;5.50;;
16957;SDS011;8595;52.542;11.974;2023-08-17T13:21:30;10.35;;;5.32;;
16957;SDS011;8595;52.542;11.974;2023-08-17T13:23:56;5.60;;;5.10;;
16957;SDS011;8595;52.542;11.974;2023-08-17T13:26:23;5.78;;;4.65;;
16957;SDS011;8595;52.542;11.974;2023-08-17T13:28:50;7.88;;;4.80;;
16957;SDS011;8595;52.542;11.974;2023-08-17T13:31:17;6.68;;;5.90;;
16957;SDS011;8595;52.542;11.974;2023-08-17T13:33:45;6.43;;;4.90;;
16957;SDS011;8595;52.542;11.974;2023-08-17T13:36:11;8.30;;;5.60;;
16957;SDS011;8595;52.542;11.974;2023-08-17T13:38:38;5.53;;;5.03;;
16957;SDS011;8595;52.542;11.974;2023-08-17T13:41:05;7.47;;;5.80;;
16957;SDS011;8595;52.542;11.974;2023-08-17T13:43:31;7.70;;;5.93;;
16957;SDS011;8595;52.542;11.974;2023-08-17T13:45:58;5.50;;;5.00;;
16957;SDS011;8595;52.542;11.974;2023-08-17T13:48:25;7.45;;;5.10;;
16957;SDS011;8595;52.542;11.974;2023-08-17T13:50:53;5.70;;;5.10;;
16957;SDS011;8595;52.542;11.974;2023-08-17T13:53:20;6.40;;;5.80;;
16957;SDS011;8595;52.542;11.974;2023-08-17T13:55:47;5.30;;;4.80;;
16957;SDS011;8595;52.542;11.974;2023-08-17T13:58:13;8.77;;;5.28;;
16957;SDS011;8595;52.542;11.974;2023-08-17T14:00:40;6.28;;;5.68;;
16957;SDS011;8595;52.542;11.974;2023-08-17T14:03:07;5.28;;;4.70;;
16957;SDS011;8595;52.542;11.974;2023-08-17T14:05:34;5.88;;;4.97;;
16957;SDS011;8595;52.542;11.974;2023-08-17T14:08:02;5.80;;;5.15;;
16957;SDS011;8595;52.542;11.974;2023-08-17T14:10:29;5.28;;;4.65;;
16957;SDS011;8595;52.542;11.974;2023-08-17T14:12:56;5.90;;;5.30;;
16957;SDS011;8595;52.542;11.974;2023-08-17T14:15:23;7.05;;;5.05;;
16957;SDS011;8595;52.542;11.974;2023-08-17T14:17:49;5.10;;;4.60;;
16957;SDS011;8595;52.542;11.974;2023-08-17T14:20:16;5.53;;;4.93;;
16957;SDS011;8595;52.542;11.974;2023-08-17T14:22:43;5.75;;;5.22;;
16957;SDS011;8595;52.542;11.974;2023-08-17T14:25:11;7.53;;;5.25;;
16957;SDS011;8595;52.542;11.974;2023-08-17T14:27:37;5.82;;;5.10;;
16957;SDS011;8595;52.542;11.974;2023-08-17T14:30:05;6.18;;;4.82;;
16957;SDS011;8595;52.542;11.974;2023-08-17T14:32:32;7.28;;;4.80;;
16957;SDS011;8595;52.542;11.974;2023-08-17T14:34:59;5.07;;;4.57;;
16957;SDS011;8595;52.542;11.974;2023-08-17T14:37:26;8.25;;;4.80;;
16957;SDS011;8595;52.542;11.974;2023-08-17T14:39:53;5.50;;;4.95;;
16957;SDS011;8595;52.542;11.974;2023-08-17T14:42:21;6.45;;;4.50;;
16957;SDS011;8595;52.542;11.974;2023-08-17T14:44:49;8.73;;;5.38;;
16957;SDS011;8595;52.542;11.974;2023-08-17T14:47:15;10.98;;;5.55;;